createdAt,value
2022-08-30T00:00:07.642Z,19.50
2022-08-30T00:02:35.334Z,19.40
2022-08-30T00:05:03.578Z,19.40
2022-08-30T00:07:31.213Z,19.40
2022-08-30T00:09:58.796Z,19.30
2022-08-30T00:12:26.370Z,19.20
2022-08-30T00:14:53.984Z,19.10
2022-08-30T00:17:21.557Z,19.00
2022-08-30T00:19:49.131Z,18.90
2022-08-30T00:22:16.784Z,18.90
2022-08-30T00:24:44.358Z,18.80
2022-08-30T00:27:11.946Z,19.00
2022-08-30T00:29:40.333Z,19.10
2022-08-30T00:32:08.676Z,19.00
2022-08-30T00:34:36.251Z,19.00
2022-08-30T00:37:04.188Z,18.80
2022-08-30T00:39:31.754Z,18.70
2022-08-30T00:41:59.317Z,18.60
2022-08-30T00:44:27.305Z,18.50
2022-08-30T00:46:54.928Z,18.50
2022-08-30T00:49:22.492Z,18.60
2022-08-30T00:51:50.123Z,18.50
2022-08-30T00:54:17.697Z,18.40
2022-08-30T00:56:45.271Z,18.40
2022-08-30T00:59:12.868Z,18.30
2022-08-30T01:01:40.538Z,18.20
2022-08-30T01:04:08.807Z,18.10
2022-08-30T01:06:36.415Z,18.00
2022-08-30T01:09:03.989Z,18.00
2022-08-30T01:11:31.574Z,18.20
2022-08-30T01:13:59.196Z,18.10
2022-08-30T01:16:27.314Z,18.10
2022-08-30T01:18:54.345Z,18.20
2022-08-30T01:21:22.312Z,18.10
2022-08-30T01:23:49.896Z,18.00
2022-08-30T01:26:19.219Z,18.10
2022-08-30T01:28:45.852Z,18.10
2022-08-30T01:31:13.481Z,17.90
2022-08-30T01:33:41.002Z,18.10
2022-08-30T01:36:08.594Z,18.00
2022-08-30T01:38:36.179Z,17.90
2022-08-30T01:41:27.796Z,17.80
2022-08-30T01:43:56.138Z,17.90
2022-08-30T01:46:23.744Z,17.80
2022-08-30T01:48:53.966Z,17.70
2022-08-30T01:51:19.645Z,17.50
2022-08-30T01:53:47.229Z,17.50
2022-08-30T01:56:15.623Z,17.60
2022-08-30T01:58:43.953Z,17.50
2022-08-30T02:01:11.582Z,17.50
2022-08-30T02:03:39.191Z,17.40
2022-08-30T02:06:06.726Z,17.60
2022-08-30T02:08:34.470Z,17.50
2022-08-30T02:11:02.892Z,17.40
2022-08-30T02:13:30.510Z,17.30
2022-08-30T02:15:58.816Z,17.40
2022-08-30T02:18:26.426Z,17.30
2022-08-30T02:20:54.001Z,17.30
2022-08-30T02:23:21.585Z,17.40
2022-08-30T02:25:50.084Z,17.30
2022-08-30T02:28:18.517Z,17.10
2022-08-30T02:30:45.247Z,17.00
2022-08-30T02:33:13.670Z,17.10
2022-08-30T02:35:41.169Z,17.10
2022-08-30T02:38:09.512Z,16.90
2022-08-30T02:40:39.201Z,16.90
2022-08-30T02:43:05.575Z,16.80
2022-08-30T02:45:33.212Z,16.70
2022-08-30T02:48:00.752Z,16.60
2022-08-30T02:50:28.337Z,16.50
2022-08-30T02:52:55.907Z,16.40
2022-08-30T02:55:23.522Z,16.40
2022-08-30T02:57:51.105Z,16.30
2022-08-30T03:00:18.680Z,16.20
2022-08-30T03:02:46.275Z,16.20
2022-08-30T03:05:14.625Z,16.30
2022-08-30T03:07:42.210Z,16.30
2022-08-30T03:10:10.592Z,16.20
2022-08-30T03:12:38.912Z,16.10
2022-08-30T03:15:06.596Z,16.10
2022-08-30T03:17:34.189Z,16.00
2022-08-30T03:20:01.763Z,16.00
2022-08-30T03:22:29.328Z,16.20
2022-08-30T03:24:59.393Z,16.20
2022-08-30T03:27:26.967Z,16.10
2022-08-30T03:29:55.310Z,16.20
2022-08-30T03:32:22.952Z,16.20
2022-08-30T03:34:50.526Z,16.10
2022-08-30T03:37:18.111Z,16.00
2022-08-30T03:39:45.738Z,15.90
2022-08-30T03:42:13.308Z,15.80
2022-08-30T03:44:40.882Z,16.00
2022-08-30T03:47:08.565Z,16.00
2022-08-30T03:49:36.079Z,15.80
2022-08-30T03:52:03.711Z,16.00
2022-08-30T03:54:32.100Z,15.80
2022-08-30T03:56:59.674Z,15.80
2022-08-30T03:59:27.248Z,15.70
2022-08-30T04:01:55.823Z,15.60
2022-08-30T04:04:23.342Z,15.50
2022-08-30T04:06:50.915Z,15.40
2022-08-30T04:09:18.542Z,15.60
2022-08-30T04:11:46.123Z,15.60
2022-08-30T04:14:14.470Z,15.40
2022-08-30T04:16:42.544Z,15.40
2022-08-30T04:19:10.018Z,15.30
2022-08-30T04:21:43.152Z,15.80
2022-08-30T04:24:05.983Z,15.70
2022-08-30T04:26:33.567Z,15.60
2022-08-30T04:29:01.151Z,15.80
2022-08-30T04:31:28.819Z,15.70
2022-08-30T04:33:56.350Z,15.50
2022-08-30T04:36:23.912Z,15.70
2022-08-30T04:38:51.802Z,15.50
2022-08-30T04:41:19.385Z,15.40
2022-08-30T04:43:47.718Z,15.20
2022-08-30T04:46:15.403Z,15.20
2022-08-30T04:48:42.905Z,15.10
2022-08-30T04:51:10.479Z,15.00
2022-08-30T04:53:38.094Z,15.20
2022-08-30T04:56:11.911Z,15.10
2022-08-30T04:58:42.863Z,15.10
2022-08-30T05:01:20.021Z,15.00
2022-08-30T05:03:46.607Z,15.00
2022-08-30T05:06:14.219Z,14.90
2022-08-30T05:08:45.912Z,14.80
2022-08-30T05:11:10.135Z,14.80
2022-08-30T05:13:37.759Z,14.80
2022-08-30T05:16:05.406Z,14.80
2022-08-30T05:18:32.925Z,15.00
2022-08-30T05:21:06.624Z,15.10
2022-08-30T05:23:34.195Z,15.00
2022-08-30T05:26:05.433Z,15.00
2022-08-30T05:28:33.040Z,15.00
2022-08-30T05:31:00.641Z,15.00
2022-08-30T05:33:28.178Z,15.00
2022-08-30T05:35:56.176Z,15.00
2022-08-30T05:38:23.768Z,15.00
2022-08-30T05:40:52.101Z,15.10
2022-08-30T05:43:19.695Z,15.10
2022-08-30T05:45:48.036Z,15.40
2022-08-30T05:48:15.824Z,15.40
2022-08-30T05:50:43.226Z,15.40
2022-08-30T05:53:10.800Z,15.40
2022-08-30T05:55:38.374Z,15.40
2022-08-30T05:58:05.968Z,15.40
2022-08-30T06:00:34.316Z,15.50
2022-08-30T06:03:01.948Z,15.40
2022-08-30T06:05:29.756Z,15.50
2022-08-30T06:07:57.379Z,15.50
2022-08-30T06:10:24.953Z,15.50
2022-08-30T06:12:52.576Z,15.60
2022-08-30T06:15:20.171Z,15.60
2022-08-30T06:17:47.763Z,15.80
2022-08-30T06:20:15.377Z,15.90
2022-08-30T06:22:42.967Z,15.90
2022-08-30T06:25:10.738Z,16.10
2022-08-30T06:27:38.607Z,16.10
2022-08-30T06:30:06.928Z,16.10
2022-08-30T06:32:34.507Z,16.30
2022-08-30T06:35:02.136Z,16.40
2022-08-30T06:37:30.308Z,16.30
2022-08-30T06:39:57.375Z,16.30
2022-08-30T06:42:24.935Z,16.40
2022-08-30T06:44:52.509Z,16.40
2022-08-30T06:47:20.083Z,16.70
2022-08-30T06:49:47.697Z,16.80
2022-08-30T06:52:16.054Z,16.90
2022-08-30T06:54:44.396Z,16.90
2022-08-30T06:57:12.010Z,16.90
2022-08-30T06:59:39.583Z,17.00
2022-08-30T07:02:07.225Z,17.30
2022-08-30T07:04:34.780Z,17.40
2022-08-30T07:07:02.364Z,17.50
2022-08-30T07:11:57.562Z,17.60
2022-08-30T07:14:25.904Z,17.70
2022-08-30T07:16:53.488Z,17.70
2022-08-30T07:19:21.873Z,18.10
2022-08-30T07:21:50.224Z,18.10
2022-08-30T07:24:17.801Z,18.10
2022-08-30T07:26:49.019Z,18.50
2022-08-30T07:29:16.590Z,18.50
2022-08-30T07:31:44.175Z,18.60
2022-08-30T07:34:12.589Z,18.90
2022-08-30T07:36:40.219Z,18.90
2022-08-30T07:39:07.721Z,19.00
2022-08-30T07:41:35.361Z,19.10
2022-08-30T07:44:02.931Z,19.20
2022-08-30T07:46:30.565Z,19.30
2022-08-30T07:48:58.421Z,19.50
2022-08-30T07:51:26.769Z,19.90
2022-08-30T07:53:54.352Z,19.90
2022-08-30T07:56:22.753Z,20.40
2022-08-30T07:58:50.327Z,20.40
2022-08-30T08:01:17.939Z,20.50
2022-08-30T08:03:45.534Z,20.50
2022-08-30T08:06:13.119Z,20.60
2022-08-30T08:08:40.707Z,20.90
2022-08-30T08:11:11.351Z,21.00
2022-08-30T08:13:47.302Z,21.10
2022-08-30T08:16:07.337Z,21.50
2022-08-30T08:18:34.889Z,21.50
2022-08-30T08:21:02.494Z,21.60
2022-08-30T08:23:30.065Z,21.70
2022-08-30T08:25:57.690Z,21.80
2022-08-30T08:28:25.262Z,21.90
2022-08-30T08:30:52.891Z,22.00
2022-08-30T08:33:20.509Z,22.10
2022-08-30T08:35:48.076Z,22.30
2022-08-30T08:38:16.567Z,22.80
2022-08-30T08:41:11.333Z,22.80
2022-08-30T08:43:38.907Z,22.90
2022-08-30T08:46:07.257Z,23.40
2022-08-30T08:48:58.930Z,23.30
2022-08-30T08:51:30.555Z,23.50
2022-08-30T08:54:00.777Z,23.50
2022-08-30T08:56:28.332Z,23.60
2022-08-30T08:58:55.910Z,23.70
2022-08-30T09:01:26.891Z,24.20
2022-08-30T09:03:55.268Z,24.30
2022-08-30T09:06:25.524Z,24.20
2022-08-30T09:08:53.438Z,24.30
2022-08-30T09:11:26.320Z,24.50
2022-08-30T09:13:52.290Z,24.80
2022-08-30T09:16:47.668Z,24.80
2022-08-30T09:19:30.442Z,24.80
2022-08-30T09:22:00.970Z,25.10
2022-08-30T09:24:28.545Z,25.10
2022-08-30T09:26:56.887Z,25.10
2022-08-30T09:29:24.523Z,25.10
2022-08-30T09:32:01.331Z,25.10
2022-08-30T09:34:19.697Z,25.20
2022-08-30T09:36:48.087Z,25.60
2022-08-30T09:39:19.442Z,25.70
2022-08-30T09:41:46.974Z,25.70
2022-08-30T09:44:21.159Z,25.80
2022-08-30T09:46:51.421Z,25.80
2022-08-30T09:49:35.381Z,26.00
2022-08-30T09:52:30.863Z,26.00
2022-08-30T09:55:24.113Z,26.00
2022-08-30T09:58:09.656Z,26.10
2022-08-30T10:00:43.200Z,26.10
2022-08-30T10:03:30.034Z,26.40
2022-08-30T10:05:48.793Z,26.60
2022-08-30T10:08:19.173Z,26.60
2022-08-30T10:10:55.478Z,26.70
2022-08-30T10:13:42.048Z,26.70
2022-08-30T10:16:31.056Z,26.70
2022-08-30T10:19:06.344Z,26.70
2022-08-30T10:21:35.084Z,26.70
2022-08-30T10:24:05.542Z,26.80
2022-08-30T10:26:39.035Z,26.90
2022-08-30T10:29:09.591Z,27.00
2022-08-30T10:31:42.571Z,27.20
2022-08-30T10:34:10.155Z,27.20
2022-08-30T10:36:44.713Z,27.40
2022-08-30T10:39:12.348Z,27.40
2022-08-30T10:41:40.686Z,27.40
2022-08-30T10:44:14.418Z,27.40
2022-08-30T10:47:12.558Z,27.40
2022-08-30T10:49:41.071Z,27.60
2022-08-30T10:52:29.747Z,27.70
2022-08-30T10:54:58.149Z,28.00
2022-08-30T10:57:26.500Z,28.00
2022-08-30T10:59:57.877Z,28.10
2022-08-30T11:02:28.171Z,28.10
2022-08-30T11:05:08.204Z,28.30
2022-08-30T11:07:47.762Z,28.30
2022-08-30T11:10:50.121Z,28.40
2022-08-30T11:13:23.229Z,28.40
2022-08-30T11:15:54.545Z,28.50
2022-08-30T11:18:22.151Z,28.50
2022-08-30T11:20:50.097Z,28.50
2022-08-30T11:23:33.789Z,28.80
2022-08-30T11:26:01.415Z,28.80
2022-08-30T11:28:35.757Z,29.00
2022-08-30T11:31:09.418Z,29.00
2022-08-30T11:33:40.680Z,29.00
2022-08-30T11:36:08.255Z,29.00
2022-08-30T11:38:35.857Z,29.00
2022-08-30T11:41:12.155Z,29.00
2022-08-30T11:43:43.208Z,29.00
2022-08-30T11:46:28.831Z,29.00
2022-08-30T11:49:11.815Z,29.00
2022-08-30T11:52:23.723Z,29.20
2022-08-30T11:54:44.764Z,29.40
2022-08-30T11:57:21.111Z,29.30
2022-08-30T11:59:57.450Z,29.50
2022-08-30T12:02:42.957Z,29.60
2022-08-30T12:08:01.551Z,30.10
2022-08-30T12:10:44.056Z,30.20
2022-08-30T12:13:11.636Z,30.40
2022-08-30T12:15:55.141Z,30.60
2022-08-30T12:18:28.909Z,30.50
2022-08-30T12:20:57.045Z,30.60
2022-08-30T12:23:31.136Z,30.60
2022-08-30T12:26:25.886Z,30.80
2022-08-30T12:28:53.480Z,31.00
2022-08-30T12:31:21.124Z,31.20
2022-08-30T12:33:48.951Z,31.20
2022-08-30T12:36:17.044Z,31.50
2022-08-30T12:38:44.618Z,31.40
2022-08-30T12:41:12.202Z,31.50
2022-08-30T12:43:41.287Z,31.50
2022-08-30T12:46:07.721Z,31.40
2022-08-30T12:48:35.022Z,31.40
2022-08-30T12:51:03.437Z,31.70
2022-08-30T12:53:31.755Z,31.70
2022-08-30T12:55:59.361Z,31.70
2022-08-30T12:58:48.082Z,31.70
2022-08-30T13:01:27.745Z,31.70
2022-08-30T13:04:19.824Z,31.70
2022-08-30T13:06:53.693Z,31.70
2022-08-30T13:09:28.049Z,31.90
2022-08-30T13:11:55.613Z,31.90
2022-08-30T13:14:44.376Z,31.90
2022-08-30T13:17:24.257Z,31.80
2022-08-30T13:20:01.446Z,31.80
2022-08-30T13:22:28.955Z,31.80
2022-08-30T13:24:56.530Z,31.90
2022-08-30T13:27:24.152Z,31.90
2022-08-30T13:29:51.726Z,31.80
2022-08-30T13:32:19.517Z,31.80
2022-08-30T13:34:47.181Z,31.80
2022-08-30T13:39:48.388Z,31.90
2022-08-30T13:42:32.550Z,32.20
2022-08-30T13:44:44.403Z,32.30
2022-08-30T13:49:43.827Z,32.40
2022-08-30T13:52:23.094Z,32.50
2022-08-30T13:54:35.727Z,32.60
2022-08-30T13:57:03.156Z,32.60
2022-08-30T13:59:30.721Z,32.70
2022-08-30T14:02:13.651Z,32.70
2022-08-30T14:04:25.981Z,32.70
2022-08-30T14:09:21.895Z,32.90
2022-08-30T14:11:50.700Z,33.00
2022-08-30T14:14:39.091Z,33.10
2022-08-30T14:16:46.711Z,33.50
2022-08-30T14:19:14.256Z,33.40
2022-08-30T14:21:41.813Z,33.50
2022-08-30T14:24:09.417Z,33.40
2022-08-30T14:26:42.909Z,33.20
2022-08-30T14:29:10.545Z,33.20
2022-08-30T14:31:38.185Z,33.20
2022-08-30T14:34:06.438Z,33.20
2022-08-30T14:36:34.780Z,33.10
2022-08-30T14:39:02.354Z,33.10
2022-08-30T14:41:29.968Z,33.00
2022-08-30T14:43:57.543Z,33.00
2022-08-30T14:46:25.145Z,33.20
2022-08-30T14:48:52.745Z,33.10
2022-08-30T14:51:20.310Z,33.10
2022-08-30T14:53:47.914Z,33.00
2022-08-30T14:56:15.684Z,33.00
2022-08-30T14:58:43.253Z,33.00
2022-08-30T15:01:10.874Z,33.20
2022-08-30T15:03:38.794Z,33.20
2022-08-30T15:06:06.350Z,33.10
2022-08-30T15:08:34.698Z,32.90
2022-08-30T15:11:03.208Z,32.90
2022-08-30T15:13:31.549Z,32.90
2022-08-30T15:15:59.178Z,32.90
2022-08-30T15:18:26.737Z,32.90
2022-08-30T15:20:54.439Z,32.90
2022-08-30T15:23:22.991Z,32.70
2022-08-30T15:25:49.597Z,32.70
2022-08-30T15:28:18.180Z,32.40
2022-08-30T15:30:45.539Z,32.40
2022-08-30T15:33:13.468Z,32.20
2022-08-30T15:35:41.061Z,32.30
2022-08-30T15:38:09.501Z,32.40
2022-08-30T15:40:37.162Z,32.40
2022-08-30T15:43:04.690Z,32.30
2022-08-30T15:45:32.264Z,32.30
2022-08-30T15:48:02.821Z,32.10
2022-08-30T15:50:30.397Z,31.90
2022-08-30T15:52:58.735Z,31.50
2022-08-30T15:55:26.603Z,31.50
2022-08-30T15:57:54.187Z,31.40
2022-08-30T16:00:21.763Z,31.20
2022-08-30T16:02:51.286Z,31.00
2022-08-30T16:05:18.869Z,31.00
2022-08-30T16:07:46.463Z,30.90
2022-08-30T16:10:14.262Z,30.90
2022-08-30T16:12:42.605Z,30.90
2022-08-30T16:15:10.248Z,30.90
2022-08-30T16:17:37.851Z,30.80
2022-08-30T16:20:06.498Z,30.70
2022-08-30T16:22:34.053Z,30.70
2022-08-30T16:25:01.676Z,30.50
2022-08-30T16:27:29.242Z,30.10
2022-08-30T16:29:56.825Z,29.80
2022-08-30T16:32:24.448Z,29.60
2022-08-30T16:34:52.021Z,29.30
2022-08-30T16:37:26.520Z,29.10
2022-08-30T16:39:55.779Z,28.60
2022-08-30T16:42:23.390Z,28.50
2022-08-30T16:44:50.927Z,28.30
2022-08-30T16:47:19.337Z,28.10
2022-08-30T16:49:52.549Z,28.00
2022-08-30T16:52:20.106Z,27.90
2022-08-30T16:54:52.207Z,27.80
2022-08-30T16:57:15.737Z,27.60
2022-08-30T16:59:44.481Z,27.40
2022-08-30T17:02:10.957Z,27.20
2022-08-30T17:04:38.487Z,27.00
2022-08-30T17:07:06.061Z,26.80
2022-08-30T17:09:33.686Z,26.70
2022-08-30T17:12:02.030Z,26.40
2022-08-30T17:14:29.601Z,26.40
2022-08-30T17:16:57.226Z,26.30
2022-08-30T17:19:26.992Z,26.20
2022-08-30T17:21:53.949Z,26.30
2022-08-30T17:24:22.369Z,26.10
2022-08-30T17:26:49.905Z,26.10
2022-08-30T17:29:17.480Z,26.00
2022-08-30T17:31:45.448Z,25.90
2022-08-30T17:34:13.000Z,25.80
2022-08-30T17:36:40.604Z,25.80
2022-08-30T17:39:10.849Z,25.70
2022-08-30T17:41:36.156Z,25.70
2022-08-30T17:44:04.501Z,25.50
2022-08-30T17:46:33.125Z,25.50
2022-08-30T17:49:01.302Z,25.50
2022-08-30T17:51:28.229Z,25.40
2022-08-30T17:53:56.620Z,25.50
2022-08-30T17:56:25.022Z,25.50
2022-08-30T17:58:52.558Z,25.50
2022-08-30T18:01:20.990Z,25.30
2022-08-30T18:03:49.281Z,25.20
2022-08-30T18:06:16.944Z,25.20
2022-08-30T18:08:44.467Z,25.10
2022-08-30T18:11:12.042Z,25.10
2022-08-30T18:13:39.628Z,25.00
2022-08-30T18:16:07.326Z,24.90
2022-08-30T18:18:34.865Z,24.80
2022-08-30T18:21:03.197Z,24.60
2022-08-30T18:23:31.805Z,24.60
2022-08-30T18:25:59.388Z,24.50
2022-08-30T18:28:27.740Z,24.70
2022-08-30T18:30:55.355Z,24.70
2022-08-30T18:33:22.927Z,24.60
2022-08-30T18:35:50.511Z,24.60
2022-08-30T18:38:18.257Z,24.70
2022-08-30T18:40:45.803Z,24.70
2022-08-30T18:43:13.325Z,24.60
2022-08-30T18:45:44.383Z,24.40
2022-08-30T18:48:12.006Z,24.40
2022-08-30T18:50:42.173Z,24.30
2022-08-30T18:53:10.528Z,24.20
2022-08-30T18:55:38.896Z,24.20
2022-08-30T18:58:06.537Z,24.20
2022-08-30T19:00:34.186Z,24.10
2022-08-30T19:03:01.761Z,24.10
2022-08-30T19:05:29.330Z,24.10
2022-08-30T19:07:57.092Z,24.00
2022-08-30T19:10:25.455Z,24.10
2022-08-30T19:12:52.261Z,24.00
2022-08-30T19:15:19.868Z,24.30
2022-08-30T19:17:47.442Z,24.20
2022-08-30T19:20:15.794Z,24.40
2022-08-30T19:25:11.920Z,24.20
2022-08-30T19:27:40.060Z,24.20
2022-08-30T19:30:07.572Z,24.10
2022-08-30T19:32:35.149Z,24.00
2022-08-30T19:35:03.501Z,23.90
2022-08-30T19:37:32.004Z,23.90
2022-08-30T19:40:00.837Z,23.80
2022-08-30T19:42:27.930Z,24.00
2022-08-30T19:44:55.889Z,23.90
2022-08-30T19:47:23.472Z,23.90
2022-08-30T19:49:51.841Z,24.20
2022-08-30T19:52:19.433Z,24.20
2022-08-30T19:54:47.005Z,24.10
2022-08-30T19:57:14.576Z,24.00
2022-08-30T19:59:43.089Z,23.90
2022-08-30T20:02:10.697Z,23.80
2022-08-30T20:04:40.940Z,23.70
2022-08-30T20:07:06.638Z,23.60
2022-08-30T20:09:34.214Z,23.60
2022-08-30T20:12:01.791Z,23.60
2022-08-30T20:14:29.405Z,23.60
2022-08-30T20:16:57.768Z,23.50
2022-08-30T20:19:27.778Z,23.50
2022-08-30T20:21:53.989Z,23.70
2022-08-30T20:24:21.562Z,23.70
2022-08-30T20:24:33.395Z,24.40
2022-08-30T20:26:49.136Z,23.70
2022-08-30T20:29:17.567Z,23.50
2022-08-30T20:31:45.192Z,23.50
2022-08-30T20:34:12.716Z,23.50
2022-08-30T20:36:40.674Z,23.70
2022-08-30T20:39:10.926Z,23.90
2022-08-30T20:41:40.273Z,24.20
2022-08-30T20:44:06.874Z,24.20
2022-08-30T20:46:35.241Z,24.00
2022-08-30T20:49:02.802Z,24.00
2022-08-30T20:51:30.400Z,23.90
2022-08-30T20:53:57.974Z,23.80
2022-08-30T20:56:28.461Z,23.70
2022-08-30T20:58:56.953Z,23.60
2022-08-30T21:01:24.557Z,23.60
2022-08-30T21:03:52.106Z,23.50
2022-08-30T21:06:19.697Z,23.50
2022-08-30T21:08:48.053Z,23.60
2022-08-30T21:11:15.628Z,23.60
2022-08-30T21:13:43.238Z,23.50
2022-08-30T21:16:12.302Z,23.50
2022-08-30T21:18:38.386Z,23.40
2022-08-30T21:21:11.721Z,23.40
2022-08-30T21:23:40.073Z,23.60
2022-08-30T21:26:07.637Z,23.50
2022-08-30T21:28:35.300Z,23.50
2022-08-30T21:31:05.666Z,23.70
2022-08-30T21:33:33.186Z,23.60
2022-08-30T21:36:18.670Z,23.40
2022-08-30T21:38:46.254Z,23.50
2022-08-30T21:41:13.839Z,23.40
2022-08-30T21:43:41.746Z,23.30
2022-08-30T21:46:09.371Z,23.20
2022-08-30T21:48:37.794Z,23.10
2022-08-30T21:51:08.073Z,23.10
2022-08-30T21:53:35.643Z,23.10
2022-08-30T21:56:08.947Z,23.00
2022-08-30T21:58:36.825Z,23.00
2022-08-30T22:01:16.386Z,23.00
2022-08-30T22:03:43.996Z,23.00
2022-08-30T22:06:11.591Z,23.20
2022-08-30T22:08:39.145Z,23.10
2022-08-30T22:11:06.756Z,23.10
2022-08-30T22:13:36.920Z,23.00
2022-08-30T22:16:04.524Z,22.90
2022-08-30T22:18:32.118Z,22.80
2022-08-30T22:21:00.421Z,23.00
2022-08-30T22:23:27.995Z,23.00
2022-08-30T22:25:55.589Z,23.00
2022-08-30T22:28:23.212Z,22.90
2022-08-30T22:30:50.780Z,22.80
2022-08-30T22:33:19.207Z,22.70
2022-08-30T22:35:46.723Z,22.60
2022-08-30T22:38:15.084Z,22.80
2022-08-30T22:40:48.253Z,22.80
2022-08-30T22:43:15.814Z,23.00
2022-08-30T22:45:43.309Z,22.90
2022-08-30T22:48:10.865Z,22.80
2022-08-30T22:50:39.207Z,22.90
2022-08-30T22:53:06.781Z,22.80
2022-08-30T22:55:35.297Z,22.80
2022-08-30T22:58:02.872Z,22.70
2022-08-30T23:00:30.454Z,22.90
2022-08-30T23:02:58.039Z,23.10
2022-08-30T23:05:25.613Z,23.00
2022-08-30T23:07:53.956Z,22.70
2022-08-30T23:10:21.589Z,22.70
2022-08-30T23:12:49.202Z,22.70
2022-08-30T23:15:16.740Z,22.60
2022-08-30T23:17:44.331Z,22.50
2022-08-30T23:20:11.906Z,22.50
2022-08-30T23:22:40.247Z,22.50
2022-08-30T23:25:26.184Z,22.40
2022-08-30T23:28:11.875Z,22.50
2022-08-30T23:30:57.763Z,22.40
2022-08-30T23:33:43.838Z,22.40
2022-08-30T23:36:30.081Z,22.30
2022-08-30T23:39:15.881Z,22.30
2022-08-30T23:42:01.630Z,22.30
2022-08-30T23:44:47.282Z,22.20
2022-08-30T23:47:33.898Z,22.00
2022-08-30T23:50:20.574Z,22.00
2022-08-30T23:53:06.097Z,22.00
2022-08-30T23:55:52.032Z,21.90
2022-08-30T23:58:38.649Z,21.90
